Terminal Aerodrome Forecast
Issued by NWS

Home | Current Version | Previous Version | Text Only | Print | Product List | Glossary On
Versions: 1 2 3 4 5 6 7 8 9 10 11 12 13 14 15 16 17
000
FTUS46 KMFR 300539
TAFOTH
TAF
KOTH 300539Z 3006/3106 01010G16KT P6SM SKC
     FM300900 02005KT P6SM SCT015
     FM301700 36012KT P6SM SKC
     FM301900 36023G32KT P6SM SKC=

USA.gov is the U.S. government's official web portal to all federal, state and local government web resources and services.